Time;durP1;ratioP1;P1;durP2;ratioP2;P2;SDS_P1;SDS_P2;PMS_P1;PMS_P2;Temp;Humidity;BMP_temperature;BMP_pressure;BME280_temperature;BME280_humidity;BME280_pressure;Samples;Min_cycle;Max_cycle;Signal;HPM_P1;HPM_P2
2022/05/04 00:01:23;;;;;;;7.87;3.20;;;;;;;39.70;37.06;101093.56;4858302;29;20551;-71
2022/05/04 00:03:49;;;;;;;10.77;3.27;;;;;;;39.77;37.31;101095.81;4858762;29;20432;-69
2022/05/04 00:06:15;;;;;;;10.17;2.90;;;;;;;39.72;37.20;101083.22;4843000;29;20503;-69
2022/05/04 00:08:41;;;;;;;7.73;2.60;;;;;;;39.54;37.53;101078.78;4858458;29;20488;-70
2022/05/04 00:11:07;;;;;;;5.50;2.67;;;;;;;39.47;37.42;101071.09;4858476;29;20765;-71
2022/05/04 00:13:34;;;;;;;10.40;4.33;;;;;;;39.49;37.72;101062.63;4858536;29;20937;-69
2022/05/04 00:16:01;;;;;;;9.43;3.10;;;;;;;39.76;37.09;101062.44;4844314;29;20404;-69
2022/05/04 00:18:30;;;;;;;11.73;3.00;;;;;;;39.80;37.95;101054.47;4844321;29;20416;-71
2022/05/04 00:20:57;;;;;;;9.37;3.27;;;;;;;39.69;37.70;101056.66;4843058;29;20504;-71
2022/05/04 00:23:24;;;;;;;14.53;3.37;;;;;;;39.63;37.62;101052.50;4844465;29;20435;-71
2022/05/04 00:25:51;;;;;;;7.60;2.93;;;;;;;39.52;38.20;101053.84;4844164;29;20467;-70
2022/05/04 00:28:17;;;;;;;10.83;2.70;;;;;;;39.45;37.77;101051.59;4858103;29;20576;-71
2022/05/04 00:30:44;;;;;;;15.80;4.90;;;;;;;39.44;38.82;101041.84;4858148;29;20429;-71
2022/05/04 00:33:10;;;;;;;11.60;3.83;;;;;;;39.52;38.78;101034.84;4842518;29;20468;-71
2022/05/04 00:35:37;;;;;;;17.33;3.30;;;;;;;39.42;38.30;101035.13;4844433;29;20411;-71
2022/05/04 00:38:03;;;;;;;7.40;3.07;;;;;;;39.37;38.46;101033.34;4858035;29;20436;-69
2022/05/04 00:40:29;;;;;;;8.80;2.70;;;;;;;39.43;38.87;101031.31;4844140;29;20417;-69
2022/05/04 00:42:55;;;;;;;10.80;3.57;;;;;;;39.39;38.96;101027.59;4858283;29;20855;-71
2022/05/04 00:45:21;;;;;;;11.73;3.00;;;;;;;39.25;39.47;101019.56;4842840;29;20472;-69
2022/05/04 00:47:47;;;;;;;7.50;3.10;;;;;;;39.33;39.20;101024.22;4858205;29;20441;-71
2022/05/04 00:50:14;;;;;;;11.07;3.60;;;;;;;39.03;39.68;101011.41;4843481;29;20431;-71
2022/05/04 00:52:43;;;;;;;8.90;4.00;;;;;;;39.35;38.76;101002.19;4857352;29;20936;-70
2022/05/04 00:55:11;;;;;;;7.60;3.10;;;;;;;39.22;39.47;101007.41;4842622;29;21054;-70
2022/05/04 01:00:24;;;;;;;10.37;3.10;;;;;;;39.20;38.73;101001.50;4844073;29;20427;-69
2022/05/04 01:02:51;;;;;;;11.80;2.83;;;;;;;39.03;39.25;101001.38;4842755;29;20818;-70
2022/05/04 01:05:17;;;;;;;9.13;3.00;;;;;;;39.08;39.58;100997.72;4842232;29;20840;-70
2022/05/04 01:07:45;;;;;;;6.03;3.13;;;;;;;39.21;39.43;100989.53;4842470;29;20857;-71
2022/05/04 01:10:13;;;;;;;8.60;3.10;;;;;;;39.28;39.47;100986.38;4843927;29;20483;-69
2022/05/04 01:12:50;;;;;;;14.00;4.23;;;;;;;39.19;39.71;100989.03;4857362;29;20444;-69
2022/05/04 01:15:18;;;;;;;10.23;3.17;;;;;;;39.04;39.73;100984.00;4843614;29;20420;-69
2022/05/04 01:17:45;;;;;;;9.23;2.90;;;;;;;39.14;39.33;100981.00;4843438;29;20409;-70
2022/05/04 01:20:12;;;;;;;14.13;3.30;;;;;;;39.18;39.51;100986.66;4857719;29;20436;-71
2022/05/04 01:22:39;;;;;;;7.53;2.97;;;;;;;39.31;39.08;100980.31;4842093;29;20878;-69
2022/05/04 01:25:05;;;;;;;8.93;3.90;;;;;;;39.38;38.71;100969.00;4857606;29;20551;-70
2022/05/04 01:27:31;;;;;;;6.80;2.80;;;;;;;39.33;39.17;100967.22;4857341;29;20810;-71
2022/05/04 01:29:58;;;;;;;9.63;3.17;;;;;;;39.31;39.13;100960.53;4857078;29;20482;-70
2022/05/04 01:32:25;;;;;;;8.80;3.50;;;;;;;39.24;38.78;100966.41;4841831;29;20428;-71
2022/05/04 01:34:51;;;;;;;11.07;4.80;;;;;;;39.28;38.27;100953.00;4841522;29;20436;-69
2022/05/04 01:37:18;;;;;;;11.47;3.47;;;;;;;39.26;38.63;100955.25;4857655;29;20945;-70
2022/05/04 01:39:46;;;;;;;7.20;3.13;;;;;;;39.27;38.72;100954.13;4843719;29;20799;-70
2022/05/04 01:42:16;;;;;;;10.83;3.17;;;;;;;39.33;38.69;100961.81;4857605;29;20424;-70
2022/05/04 01:44:45;;;;;;;11.20;3.40;;;;;;;39.45;38.08;100963.94;4843158;29;20981;-72
2022/05/04 01:47:11;;;;;;;7.53;2.93;;;;;;;39.41;38.34;100960.22;4842860;29;20409;-69
2022/05/04 01:49:38;;;;;;;10.10;3.07;;;;;;;39.35;38.35;100959.59;4856513;29;20459;-69
2022/05/04 01:52:05;;;;;;;8.90;3.30;;;;;;;39.35;38.30;100953.34;4856838;29;20424;-70
2022/05/04 01:54:31;;;;;;;8.93;4.17;;;;;;;39.26;38.91;100955.25;4842605;29;20432;-70
2022/05/04 07:06:50;;;;;;;15.50;4.20;;;;;;;39.36;39.54;101009.25;6085768;22;1961401;-68
2022/05/04 07:09:17;;;;;;;10.43;3.50;;;;;;;39.31;39.49;101015.59;6184335;23;20142;-68
2022/05/04 07:11:43;;;;;;;10.17;3.40;;;;;;;39.21;39.44;101019.38;6158261;23;20395;-68
2022/05/04 07:14:09;;;;;;;14.20;4.30;;;;;;;39.22;39.87;101026.41;6158373;23;20515;-70
2022/05/04 07:16:36;;;;;;;14.80;3.53;;;;;;;39.37;39.36;101033.34;6158378;23;20376;-70
2022/05/04 07:19:03;;;;;;;8.77;4.63;;;;;;;39.39;39.23;101033.03;6158417;23;20400;-68
2022/05/04 07:21:31;;;;;;;8.43;4.40;;;;;;;39.56;38.94;101037.75;6184890;23;20714;-67
2022/05/04 07:23:57;;;;;;;11.27;5.03;;;;;;;39.57;39.42;101037.44;6133223;23;20380;-68
2022/05/04 07:26:23;;;;;;;9.60;3.63;;;;;;;39.44;39.28;101044.56;6158212;23;20404;-69
2022/05/04 07:28:49;;;;;;;12.23;4.17;;;;;;;39.49;38.84;101046.34;6158472;23;20408;-68
2022/05/04 07:31:15;;;;;;;10.10;4.80;;;;;;;39.55;38.95;101053.25;6158037;23;20872;-67
2022/05/04 07:33:41;;;;;;;14.03;5.30;;;;;;;39.57;39.56;101056.44;6185044;23;20351;-69
2022/05/04 07:36:07;;;;;;;11.30;4.80;;;;;;;39.62;39.34;101060.97;6185185;23;20435;-68
2022/05/04 07:38:33;;;;;;;10.77;4.30;;;;;;;39.67;39.08;101066.25;6184839;23;20431;-68
2022/05/04 07:43:44;;;;;;;7.83;4.20;;;;;;;39.66;38.47;101064.66;6184797;23;20436;-68
2022/05/04 07:46:10;;;;;;;10.70;3.00;;;;;;;39.40;39.03;101068.00;6158216;23;20408;-68
2022/05/04 07:48:36;;;;;;;9.83;4.83;;;;;;;39.59;38.70;101075.13;6158182;23;20403;-68
2022/05/04 07:51:03;;;;;;;10.50;3.73;;;;;;;39.58;38.77;101074.31;6157861;23;20953;-68
2022/05/04 07:53:29;;;;;;;7.37;3.50;;;;;;;39.29;38.93;101072.13;6158026;23;20419;-68
2022/05/04 07:55:55;;;;;;;8.17;3.73;;;;;;;39.83;38.38;101070.13;6184389;23;20403;-68
2022/05/04 07:58:21;;;;;;;10.73;3.80;;;;;;;39.99;38.74;101078.66;6157803;23;20372;-68
2022/05/04 08:06:16;;;;;;;8.03;2.87;;;;;;;40.19;38.07;101083.53;6167604;23;20487;-69
2022/05/04 08:08:42;;;;;;;13.67;4.67;;;;;;;39.95;37.87;101081.19;6155229;23;20362;-67
2022/05/04 08:11:08;;;;;;;11.77;3.80;;;;;;;39.96;38.42;101082.81;6155041;23;20384;-67
2022/05/04 08:13:34;;;;;;;20.90;4.87;;;;;;;39.89;38.00;101081.66;6128966;23;20861;-68
2022/05/04 08:16:01;;;;;;;7.83;3.40;;;;;;;39.93;37.83;101083.44;6128320;23;20388;-69
2022/05/04 08:18:27;;;;;;;13.07;4.67;;;;;;;39.73;38.41;101084.81;6128785;23;20471;-68
2022/05/04 08:20:53;;;;;;;7.20;2.90;;;;;;;39.80;38.26;101080.84;6128228;23;20424;-70
2022/05/04 08:23:19;;;;;;;7.57;2.97;;;;;;;39.90;38.51;101081.38;6128722;23;20389;-69
2022/05/04 08:25:46;;;;;;;15.60;4.13;;;;;;;40.05;38.30;101082.88;6129106;23;20389;-69
2022/05/04 08:28:15;;;;;;;9.20;3.97;;;;;;;40.09;37.70;101081.13;6128686;23;20377;-69
2022/05/04 08:30:41;;;;;;;15.90;4.73;;;;;;;40.02;38.36;101080.72;6128565;23;20388;-70
2022/05/04 08:33:07;;;;;;;7.27;3.83;;;;;;;40.17;38.12;101083.06;6128423;23;20770;-69
2022/05/04 08:35:33;;;;;;;9.37;4.97;;;;;;;39.99;38.65;101079.47;6128611;23;20456;-70
2022/05/04 08:37:59;;;;;;;8.53;3.40;;;;;;;40.05;38.47;101079.34;6128503;23;20409;-69
2022/05/04 08:40:25;;;;;;;8.93;3.73;;;;;;;40.20;38.65;101079.69;6128638;23;20421;-69
2022/05/04 08:42:52;;;;;;;11.83;4.57;;;;;;;40.29;38.15;101085.16;6128527;23;20403;-69
2022/05/04 08:45:18;;;;;;;8.23;4.50;;;;;;;40.33;37.79;101086.13;6104240;23;20405;-70
2022/05/04 08:47:45;;;;;;;8.87;4.17;;;;;;;40.20;38.26;101084.31;6128718;23;20385;-70
2022/05/04 08:50:17;;;;;;;6.60;3.57;;;;;;;40.37;37.95;101078.13;6129180;23;20509;-70
2022/05/04 08:52:53;;;;;;;8.37;3.00;;;;;;;40.23;38.34;101079.06;6128281;23;20385;-71
2022/05/04 08:55:21;;;;;;;14.53;4.17;;;;;;;40.16;38.35;101081.47;6154464;23;20357;-69
2022/05/04 08:57:47;;;;;;;13.57;3.77;;;;;;;39.96;38.86;101076.56;6079808;23;20385;-69
2022/05/04 09:00:15;;;;;;;9.00;4.10;;;;;;;40.06;38.56;101078.22;6128092;23;21247;-69
2022/05/04 09:02:41;;;;;;;7.37;3.60;;;;;;;40.09;38.56;101081.13;6128713;23;20365;-70
2022/05/04 09:05:24;;;;;;;8.70;3.70;;;;;;;40.05;38.09;101077.44;6127812;23;20413;-70
2022/05/04 09:07:53;;;;;;;11.20;3.50;;;;;;;40.14;37.77;101075.53;6128082;23;20400;-70
2022/05/04 09:10:31;;;;;;;14.73;8.87;;;;;;;40.01;38.29;101073.69;6127739;23;20471;-70
2022/05/04 09:12:59;;;;;;;9.70;4.17;;;;;;;39.92;38.41;101076.41;6128408;23;20384;-71
2022/05/04 09:15:27;;;;;;;8.37;4.77;;;;;;;40.05;38.18;101082.06;6127284;23;20381;-71
2022/05/04 09:18:13;;;;;;;17.87;10.53;;;;;;;39.93;38.41;101088.88;6125923;23;20412;-71
2022/05/04 09:20:57;;;;;;;16.20;5.50;;;;;;;40.12;37.65;101088.63;6125811;23;20424;-71
2022/05/04 09:23:29;;;;;;;8.73;4.47;;;;;;;40.28;37.82;101078.13;6129588;23;20360;-72
2022/05/04 09:26:01;;;;;;;13.30;5.40;;;;;;;40.27;37.77;101088.19;6125507;23;20401;-70
2022/05/04 09:28:29;;;;;;;8.30;3.83;;;;;;;40.24;38.17;101088.81;6151895;23;20734;-70
2022/05/04 09:31:00;;;;;;;13.23;3.47;;;;;;;40.23;38.78;101083.72;6102081;23;20406;-70
2022/05/04 09:33:28;;;;;;;14.30;6.60;;;;;;;40.33;38.60;101096.19;6103617;23;20456;-70
2022/05/04 09:35:56;;;;;;;9.60;5.47;;;;;;;40.37;38.69;101097.94;6103512;23;20413;-70
2022/05/04 09:46:51;;;;;;;8.43;4.00;;;;;;;40.22;37.83;101106.56;6153993;23;20369;-71
2022/05/04 09:49:20;;;;;;;9.83;5.60;;;;;;;40.13;38.49;101109.25;6154112;23;20380;-70
2022/05/04 09:51:49;;;;;;;7.53;4.00;;;;;;;40.16;38.48;101113.28;6154343;23;20337;-68
2022/05/04 09:54:18;;;;;;;6.77;3.20;;;;;;;40.19;38.68;101107.97;6128538;23;20392;-71
2022/05/04 09:56:46;;;;;;;12.37;3.93;;;;;;;40.24;38.44;101115.19;6154227;23;20395;-69
2022/05/04 09:59:14;;;;;;;8.30;3.67;;;;;;;40.13;38.36;101111.97;6127946;23;20826;-70
2022/05/04 10:01:43;;;;;;;9.50;2.40;;;;;;;40.18;37.75;101103.66;6127752;23;20424;-69
2022/05/04 10:04:14;;;;;;;13.30;3.10;;;;;;;40.27;37.96;101098.28;6103394;23;20377;-71
2022/05/04 10:06:43;;;;;;;11.73;4.63;;;;;;;40.29;37.73;101099.53;6111119;23;20465;-69
2022/05/04 10:09:10;;;;;;;10.30;4.97;;;;;;;40.23;38.09;101103.53;6098411;23;20382;-74
2022/05/04 10:11:37;;;;;;;11.20;3.60;;;;;;;40.23;38.13;101106.25;6098594;23;20385;-69
2022/05/04 10:14:07;;;;;;;11.10;3.67;;;;;;;40.29;38.20;101107.69;6098257;23;20387;-70
2022/05/04 10:16:58;;;;;;;8.70;3.90;;;;;;;40.35;38.17;101107.56;6098442;23;20389;-70
2022/05/04 10:19:51;;;;;;;8.33;3.10;;;;;;;40.37;37.88;101102.59;6082375;23;20967;-70
2022/05/04 10:22:26;;;;;;;11.17;3.97;;;;;;;40.46;37.38;101109.66;6086741;23;20420;-67
2022/05/04 10:24:57;;;;;;;7.10;3.60;;;;;;;40.55;37.15;101109.69;6100431;23;20392;-67
2022/05/04 10:27:25;;;;;;;11.07;3.80;;;;;;;40.57;37.18;101102.00;6100765;23;20420;-67
2022/05/04 10:32:49;;;;;;;7.13;3.60;;;;;;;40.45;37.58;101093.63;6104411;23;20397;-67
2022/05/04 10:35:27;;;;;;;8.87;3.97;;;;;;;40.49;37.39;101097.34;6100616;23;20416;-67
2022/05/04 10:37:59;;;;;;;10.30;3.47;;;;;;;40.38;36.68;101093.31;6126379;23;20369;-67
2022/05/04 10:40:35;;;;;;;9.40;4.20;;;;;;;40.37;37.53;101100.66;6100197;23;20444;-67
2022/05/04 10:43:03;;;;;;;10.70;4.03;;;;;;;40.49;37.22;101095.44;6052401;23;20389;-67
2022/05/04 10:45:30;;;;;;;10.37;4.20;;;;;;;40.39;37.20;101095.72;6100250;23;20393;-69
2022/05/04 10:48:23;;;;;;;11.17;4.60;;;;;;;40.38;38.04;101096.03;6100232;23;20911;-69
2022/05/04 10:51:11;;;;;;;8.60;4.60;;;;;;;40.36;37.36;101090.91;6096113;23;20382;-67
2022/05/04 10:53:40;;;;;;;16.90;5.20;;;;;;;40.28;37.53;101097.94;6100684;23;20372;-69
2022/05/04 10:56:12;;;;;;;8.40;3.90;;;;;;;40.22;38.16;101099.22;6100371;23;20448;-68
2022/05/04 10:58:54;;;;;;;11.03;4.87;;;;;;;40.22;38.19;101098.41;6076864;23;20424;-68
2022/05/04 11:01:22;;;;;;;13.33;3.80;;;;;;;40.28;38.02;101095.22;6100173;23;20949;-67
2022/05/04 11:04:10;;;;;;;13.60;4.20;;;;;;;40.09;38.29;101094.72;6126018;23;20449;-69
2022/05/04 11:06:49;;;;;;;8.20;3.27;;;;;;;40.24;37.95;101093.47;6078103;23;20445;-67
2022/05/04 11:09:21;;;;;;;8.17;4.13;;;;;;;40.21;38.23;101084.03;6126182;23;20370;-68
2022/05/04 11:11:57;;;;;;;8.73;3.63;;;;;;;40.20;38.03;101076.97;6100060;23;20389;-67
2022/05/04 11:14:24;;;;;;;6.63;3.60;;;;;;;40.12;37.70;101075.03;6099956;23;20458;-68
2022/05/04 11:16:59;;;;;;;13.03;6.80;;;;;;;40.32;38.08;101076.34;6075773;23;20389;-69
2022/05/04 11:19:27;;;;;;;8.53;3.90;;;;;;;40.37;37.66;101078.13;6099741;23;20377;-65
2022/05/04 11:21:57;;;;;;;10.03;3.53;;;;;;;40.39;37.73;101081.31;6052341;23;20398;-66
2022/05/04 11:24:26;;;;;;;6.03;3.17;;;;;;;40.25;38.10;101073.31;6075671;23;20382;-65
2022/05/04 11:26:52;;;;;;;9.80;3.50;;;;;;;40.32;38.14;101072.84;6075572;23;20374;-66
2022/05/04 11:29:23;;;;;;;21.47;5.50;;;;;;;40.32;38.08;101079.06;6098503;23;20378;-66
2022/05/04 11:32:01;;;;;;;6.70;3.60;;;;;;;40.36;38.33;101065.66;6075433;23;20382;-65
2022/05/04 11:34:32;;;;;;;13.03;3.40;;;;;;;40.19;38.86;101067.22;6100053;23;20394;-68
2022/05/04 11:37:05;;;;;;;10.17;4.63;;;;;;;40.28;39.10;101065.34;6125937;23;20382;-64
2022/05/04 11:39:33;;;;;;;12.87;4.17;;;;;;;40.20;39.07;101054.44;6075957;23;20401;-65
2022/05/04 11:42:01;;;;;;;12.00;3.20;;;;;;;40.45;38.38;101053.66;6076133;23;20851;-66
2022/05/04 11:44:29;;;;;;;17.00;4.30;;;;;;;40.52;38.54;101053.22;6100344;23;20465;-66
2022/05/04 11:47:00;;;;;;;11.73;4.43;;;;;;;40.39;38.61;101048.69;6074158;23;20390;-67
2022/05/04 11:49:28;;;;;;;11.80;4.20;;;;;;;40.43;39.12;101057.81;6075130;23;20433;-68
2022/05/04 11:51:56;;;;;;;8.47;3.93;;;;;;;40.39;38.73;101046.81;6099719;23;20378;-69
2022/05/04 11:54:23;;;;;;;6.93;3.63;;;;;;;40.29;38.89;101058.78;6099640;23;20374;-70
2022/05/04 11:56:49;;;;;;;8.20;3.87;;;;;;;40.39;38.63;101056.84;6099626;23;20398;-67
2022/05/04 11:59:15;;;;;;;10.77;4.27;;;;;;;40.44;38.62;101053.97;6099494;23;20402;-69
2022/05/04 12:01:42;;;;;;;11.93;3.57;;;;;;;40.47;38.66;101051.47;6098951;23;20438;-67
2022/05/04 12:04:11;;;;;;;10.57;4.27;;;;;;;40.49;38.67;101049.22;6099925;23;20397;-68
2022/05/04 12:06:38;;;;;;;8.57;4.00;;;;;;;40.44;38.93;101043.09;6098809;23;20475;-69
2022/05/04 12:09:04;;;;;;;7.20;3.60;;;;;;;40.51;38.64;101044.25;6099506;23;20433;-68
2022/05/04 12:11:32;;;;;;;11.90;3.70;;;;;;;40.61;38.22;101042.34;6125194;23;20910;-66
2022/05/04 12:13:59;;;;;;;9.10;4.57;;;;;;;40.71;37.81;101029.22;6098882;23;20382;-66
2022/05/04 12:16:26;;;;;;;11.70;3.87;;;;;;;40.66;37.54;101023.94;6098861;23;20417;-66
2022/05/04 12:18:52;;;;;;;9.10;2.80;;;;;;;40.67;37.13;101017.38;6099089;23;20743;-66
2022/05/04 12:21:20;;;;;;;10.47;4.70;;;;;;;40.72;36.83;101027.31;6099037;23;20938;-66
2022/05/04 12:23:49;;;;;;;7.20;4.07;;;;;;;40.81;36.92;101030.78;6097413;23;20386;-66
2022/05/04 12:26:15;;;;;;;7.20;3.70;;;;;;;40.83;37.33;101033.22;6124809;23;20366;-66
2022/05/04 12:28:43;;;;;;;9.97;4.23;;;;;;;40.76;37.53;101030.97;6074297;23;20494;-65
2022/05/04 12:33:56;;;;;;;10.23;2.93;;;;;;;40.91;36.88;101027.78;6124763;23;20358;-69
2022/05/04 12:36:23;;;;;;;7.93;4.40;;;;;;;40.99;36.62;101034.31;6098918;23;20378;-66
2022/05/04 12:38:52;;;;;;;11.87;4.30;;;;;;;40.98;36.88;101036.25;6098518;23;20851;-66
2022/05/04 12:41:20;;;;;;;14.13;4.97;;;;;;;40.89;37.11;101019.13;6075286;23;20788;-66
2022/05/04 12:43:51;;;;;;;11.63;4.70;;;;;;;40.86;37.24;101032.56;6098836;23;20784;-68
2022/05/04 12:46:19;;;;;;;12.03;4.87;;;;;;;40.96;37.32;101022.19;6099017;23;20481;-68
2022/05/04 12:48:48;;;;;;;6.67;3.50;;;;;;;40.99;37.45;101020.72;6124511;23;20445;-68
2022/05/04 12:51:17;;;;;;;11.37;5.00;;;;;;;41.00;37.49;101023.09;6099070;23;20851;-68
2022/05/04 12:53:48;;;;;;;8.30;3.47;;;;;;;41.04;37.02;101018.63;6099260;23;20948;-68
2022/05/04 12:59:01;;;;;;;8.60;3.03;;;;;;;41.10;37.12;101023.91;6103260;23;20437;-67
2022/05/04 13:01:30;;;;;;;5.77;2.70;;;;;;;41.14;36.71;101025.66;6099064;23;20449;-68
2022/05/04 13:03:57;;;;;;;10.13;3.27;;;;;;;41.13;36.88;101024.06;6074129;23;20509;-68
2022/05/04 13:06:24;;;;;;;7.97;3.20;;;;;;;41.18;37.20;101026.59;6135530;23;20917;-68
2022/05/04 13:08:51;;;;;;;6.67;2.60;;;;;;;41.08;37.27;101030.47;6126476;23;20713;-69
2022/05/04 13:11:18;;;;;;;10.70;3.30;;;;;;;41.05;37.46;101024.84;6126566;23;20717;-67
2022/05/04 13:13:45;;;;;;;8.00;3.40;;;;;;;40.94;36.78;101029.84;6152632;23;20886;-67
2022/05/04 13:16:12;;;;;;;16.33;4.20;;;;;;;41.04;36.80;101028.72;6103028;23;20373;-69
2022/05/04 13:18:41;;;;;;;8.67;4.10;;;;;;;41.12;36.64;101035.25;6126265;23;20381;-68
2022/05/04 13:21:07;;;;;;;10.13;5.40;;;;;;;41.14;36.99;101027.56;6126748;23;20855;-68
2022/05/04 13:23:34;;;;;;;10.73;3.60;;;;;;;41.15;36.71;101015.56;6153020;23;20385;-67
2022/05/04 13:26:00;;;;;;;9.53;3.53;;;;;;;41.17;36.73;101016.03;6126688;23;20390;-67
2022/05/04 13:28:29;;;;;;;8.13;3.70;;;;;;;41.17;36.80;101014.09;6126813;23;20380;-68
2022/05/04 13:30:55;;;;;;;7.90;3.60;;;;;;;41.17;36.80;101016.81;6152674;23;20362;-70
2022/05/04 13:33:23;;;;;;;6.27;3.70;;;;;;;41.25;36.30;101007.84;6126886;23;20904;-68
2022/05/04 13:35:49;;;;;;;7.10;3.20;;;;;;;41.31;36.39;101009.25;6126661;23;20790;-68
2022/05/04 13:38:15;;;;;;;6.70;2.83;;;;;;;41.21;36.80;101000.66;6153316;23;20377;-67
2022/05/04 13:40:41;;;;;;;13.13;6.90;;;;;;;41.18;39.18;100999.38;6103331;23;20428;-67
2022/05/04 13:43:10;;;;;;;10.27;4.00;;;;;;;41.19;37.69;100990.09;6103628;23;20420;-67
2022/05/04 13:45:36;;;;;;;7.37;3.27;;;;;;;41.20;37.64;100975.38;6154320;23;20358;-69
2022/05/04 13:48:03;;;;;;;9.50;4.20;;;;;;;41.18;37.55;100990.41;6127603;23;20388;-67
2022/05/04 13:53:16;;;;;;;11.10;3.63;;;;;;;41.22;37.62;101034.91;6131929;23;20479;-69
2022/05/04 18:04:21;;;;;;;14.20;6.40;;;;;;;37.49;38.66;100835.28;6184825;23;20501;-70
2022/05/04 18:06:48;;;;;;;15.50;8.30;;;;;;;37.30;38.83;100831.91;6157612;23;20388;-69
2022/05/04 18:09:14;;;;;;;12.90;5.77;;;;;;;37.10;39.52;100833.91;6158030;23;20385;-69
2022/05/04 18:11:40;;;;;;;15.90;6.80;;;;;;;37.22;38.95;100829.91;6157762;23;20368;-69
2022/05/04 18:14:07;;;;;;;30.30;7.77;;;;;;;37.34;39.26;100824.81;6156765;23;20475;-70
2022/05/04 18:16:33;;;;;;;24.27;7.90;;;;;;;37.45;38.75;100823.50;6157915;23;20788;-69
2022/05/04 18:18:59;;;;;;;13.60;5.90;;;;;;;37.52;38.60;100829.28;6183995;23;20360;-71
2022/05/04 18:21:25;;;;;;;21.33;6.63;;;;;;;37.68;39.08;100821.63;6157371;23;20491;-70
2022/05/04 18:23:51;;;;;;;23.57;7.57;;;;;;;37.70;38.50;100830.25;6154730;23;20384;-69
2022/05/04 18:26:17;;;;;;;13.80;5.97;;;;;;;37.49;39.19;100824.47;6157550;23;20455;-68
2022/05/04 18:28:44;;;;;;;11.23;6.23;;;;;;;37.38;39.52;100829.31;6157004;23;20780;-68
2022/05/04 18:31:11;;;;;;;15.57;7.70;;;;;;;37.47;39.35;100826.69;6157815;23;20910;-69
2022/05/04 18:33:37;;;;;;;11.87;6.00;;;;;;;37.43;39.92;100824.88;6156785;23;20407;-66
2022/05/04 18:36:03;;;;;;;28.40;8.17;;;;;;;37.20;40.42;100829.38;6156000;23;20423;-68
2022/05/04 18:38:31;;;;;;;18.23;6.73;;;;;;;36.98;40.07;100825.50;6157396;23;20479;-74
2022/05/04 18:40:57;;;;;;;15.53;6.40;;;;;;;36.44;41.73;100827.00;6184411;23;20412;-68
2022/05/04 18:43:23;;;;;;;17.03;8.37;;;;;;;36.88;40.64;100833.78;6154695;23;20737;-69
2022/05/04 18:45:49;;;;;;;21.57;7.53;;;;;;;36.95;40.44;100828.78;6184037;23;20357;-70
2022/05/04 18:48:15;;;;;;;18.90;6.03;;;;;;;37.04;40.09;100839.72;6157494;23;20730;-73
2022/05/04 18:50:42;;;;;;;14.27;5.60;;;;;;;36.99;40.63;100842.53;6157594;23;20397;-71
2022/05/04 18:53:09;;;;;;;17.23;6.97;;;;;;;37.15;40.29;100845.75;6184121;23;20403;-69
2022/05/04 18:55:36;;;;;;;17.30;6.40;;;;;;;37.20;39.85;100840.22;6156916;23;20408;-73
2022/05/04 18:58:03;;;;;;;13.03;5.10;;;;;;;37.35;39.81;100845.34;6155966;23;20376;-72
2022/05/04 19:00:30;;;;;;;14.43;8.43;;;;;;;37.47;39.43;100848.34;6145634;23;20452;-69
2022/05/04 19:02:56;;;;;;;15.13;7.07;;;;;;;37.20;40.19;100853.72;6154381;23;20360;-69
2022/05/04 19:05:22;;;;;;;20.93;7.60;;;;;;;37.40;39.61;100856.06;6128014;23;20409;-69
2022/05/04 19:07:48;;;;;;;16.80;6.10;;;;;;;37.26;40.33;100863.34;6128049;23;20408;-69
2022/05/04 19:10:15;;;;;;;16.93;6.73;;;;;;;37.24;39.85;100865.56;6127592;23;20467;-69
2022/05/04 19:12:41;;;;;;;8.13;4.80;;;;;;;37.07;40.17;100868.84;6154144;23;20396;-69
2022/05/04 19:15:09;;;;;;;16.13;6.30;;;;;;;37.24;40.32;100869.06;6128362;23;20468;-68
2022/05/04 19:17:36;;;;;;;10.57;5.37;;;;;;;37.35;39.96;100881.31;6128289;23;20381;-72
2022/05/04 19:20:02;;;;;;;13.00;7.33;;;;;;;37.27;40.07;100887.41;6127728;23;20415;-71
2022/05/04 19:22:28;;;;;;;21.90;8.57;;;;;;;37.49;40.25;100883.22;6128013;23;20420;-69
2022/05/04 19:24:54;;;;;;;19.47;7.80;;;;;;;37.05;41.10;100890.00;6152421;23;20424;-68
2022/05/04 19:27:20;;;;;;;12.93;6.37;;;;;;;36.90;41.14;100904.63;6127441;23;20407;-68
2022/05/04 19:29:46;;;;;;;21.17;17.40;;;;;;;36.20;42.95;100905.41;6127842;23;20419;-69
2022/05/04 19:32:13;;;;;;;18.23;15.40;;;;;;;35.75;44.12;100921.13;6153681;23;20357;-69
2022/05/04 19:34:39;;;;;;;24.97;17.40;;;;;;;35.84;43.77;100929.38;6153577;23;20400;-69
2022/05/04 19:37:05;;;;;;;22.97;16.47;;;;;;;35.65;43.74;100929.34;6126615;23;20392;-71
2022/05/04 19:39:31;;;;;;;31.03;18.53;;;;;;;35.50;43.77;100937.63;6126853;23;20853;-73
2022/05/04 19:41:57;;;;;;;29.63;18.83;;;;;;;35.92;43.68;100944.97;6126910;23;20441;-73
2022/05/04 19:44:23;;;;;;;27.03;17.67;;;;;;;35.57;43.77;100958.88;6127418;23;20386;-69
2022/05/04 19:46:49;;;;;;;28.70;20.87;;;;;;;35.57;43.78;100967.75;6126417;23;20382;-72
2022/05/04 19:49:15;;;;;;;28.73;22.40;;;;;;;35.99;42.89;100977.81;6126993;23;20381;-72
2022/05/04 19:51:42;;;;;;;29.73;21.60;;;;;;;36.01;43.00;100991.81;6127513;23;20374;-72
2022/05/04 19:54:08;;;;;;;26.47;19.73;;;;;;;36.06;42.66;101002.56;6126224;23;20385;-72
2022/05/04 19:56:34;;;;;;;27.00;17.47;;;;;;;36.15;42.81;101018.91;6126838;23;20729;-73
2022/05/04 19:59:03;;;;;;;22.63;15.03;;;;;;;35.98;42.88;101035.59;6126488;23;20409;-72
2022/05/04 20:01:30;;;;;;;19.50;14.60;;;;;;;35.65;43.04;101045.38;6126657;23;20990;-72
2022/05/04 20:03:58;;;;;;;19.77;12.43;;;;;;;35.16;43.90;101051.72;6126670;23;20857;-72
2022/05/04 20:06:26;;;;;;;19.27;13.27;;;;;;;35.41;43.09;101056.09;6152522;23;20377;-72
2022/05/04 20:08:52;;;;;;;18.70;11.33;;;;;;;35.56;42.55;101062.47;6126501;23;20411;-72
2022/05/04 20:11:18;;;;;;;17.20;10.57;;;;;;;35.77;42.14;101069.28;6124928;23;20388;-78
2022/05/04 20:13:44;;;;;;;21.60;12.20;;;;;;;35.84;41.81;101061.63;6126773;23;20388;-78
2022/05/04 20:16:10;;;;;;;18.23;11.27;;;;;;;35.05;43.46;101081.75;6127603;23;20435;-77
2022/05/04 20:18:36;;;;;;;17.83;10.70;;;;;;;34.79;43.46;101073.00;6127484;23;20460;-72
2022/05/04 20:21:02;;;;;;;16.50;10.57;;;;;;;34.99;43.33;101084.50;6127741;23;20436;-73
2022/05/04 20:23:28;;;;;;;27.87;12.47;;;;;;;35.15;42.86;101079.78;6127766;23;20447;-72
2022/05/04 20:25:54;;;;;;;16.00;10.93;;;;;;;34.52;44.06;101087.69;6127693;23;20611;-72
2022/05/04 20:28:21;;;;;;;23.63;11.20;;;;;;;34.43;44.42;101092.03;6127802;23;20370;-78
2022/05/04 20:30:47;;;;;;;21.20;11.63;;;;;;;34.38;44.25;101092.84;6153510;23;20400;-71
2022/05/04 20:33:13;;;;;;;16.43;10.03;;;;;;;33.74;45.81;101092.72;6127565;23;20461;-71
2022/05/04 20:35:39;;;;;;;13.53;10.33;;;;;;;34.47;44.09;101093.91;6127366;23;20381;-73
2022/05/04 20:40:50;;;;;;;13.07;10.07;;;;;;;34.13;44.65;101088.38;6153621;23;20467;-71
2022/05/04 20:43:16;;;;;;;17.30;11.27;;;;;;;34.18;44.60;101087.53;6103327;23;20373;-72
2022/05/04 20:45:42;;;;;;;13.83;9.93;;;;;;;33.80;45.09;101078.19;6127306;23;20850;-71
2022/05/04 20:48:08;;;;;;;15.30;9.63;;;;;;;34.33;44.15;101067.84;6128054;23;20408;-72
2022/05/04 20:53:19;;;;;;;12.30;9.10;;;;;;;34.72;43.10;101052.56;6155625;23;20852;-71
2022/05/04 20:55:46;;;;;;;17.50;9.23;;;;;;;35.21;41.79;101043.59;6128842;23;20412;-71
2022/05/04 20:58:12;;;;;;;12.80;8.60;;;;;;;35.35;41.40;101041.03;6155543;23;20342;-72
2022/05/04 21:00:40;;;;;;;18.30;9.30;;;;;;;34.68;42.33;101048.81;6128492;23;20451;-71
2022/05/04 21:03:06;;;;;;;12.00;8.67;;;;;;;34.98;41.55;101047.81;6154962;23;20400;-74
2022/05/04 21:05:32;;;;;;;13.93;8.00;;;;;;;34.62;42.56;101057.19;6155232;23;20416;-72
2022/05/04 21:07:58;;;;;;;16.97;9.23;;;;;;;34.95;41.86;101058.38;6129209;23;20932;-77
2022/05/04 21:10:25;;;;;;;19.10;9.43;;;;;;;34.55;42.70;101057.50;6129397;23;20396;-72
2022/05/04 21:12:52;;;;;;;16.57;9.17;;;;;;;34.71;42.49;101056.34;6129040;23;20413;-72
2022/05/04 21:15:19;;;;;;;14.00;10.83;;;;;;;34.61;42.55;101058.28;6155547;23;20357;-72
2022/05/04 21:17:45;;;;;;;16.10;10.80;;;;;;;34.72;42.35;101052.56;6129324;23;20385;-74